sensor_id;sensor_type;location;lat;lon;timestamp;P1;durP1;ratioP1;P2;durP2;ratioP2
11618;SDS011;5865;48.776;9.280;2022-07-10T00:00:24;3.33;;;3.03;;
11618;SDS011;5865;48.776;9.280;2022-07-10T00:02:52;3.55;;;3.25;;
11618;SDS011;5865;48.776;9.280;2022-07-10T00:05:19;3.80;;;3.50;;
11618;SDS011;5865;48.776;9.280;2022-07-10T00:07:47;3.58;;;2.90;;
11618;SDS011;5865;48.776;9.280;2022-07-10T00:10:14;3.92;;;2.90;;
11618;SDS011;5865;48.776;9.280;2022-07-10T00:12:42;3.80;;;3.50;;
11618;SDS011;5865;48.776;9.280;2022-07-10T00:15:10;4.20;;;3.80;;
11618;SDS011;5865;48.776;9.280;2022-07-10T00:17:38;3.90;;;3.60;;
11618;SDS011;5865;48.776;9.280;2022-07-10T00:20:06;4.93;;;4.25;;
11618;SDS011;5865;48.776;9.280;2022-07-10T00:22:34;4.00;;;3.42;;
11618;SDS011;5865;48.776;9.280;2022-07-10T00:25:01;4.35;;;3.50;;
11618;SDS011;5865;48.776;9.280;2022-07-10T00:27:29;3.10;;;2.88;;
11618;SDS011;5865;48.776;9.280;2022-07-10T00:29:56;3.13;;;2.83;;
11618;SDS011;5865;48.776;9.280;2022-07-10T00:32:24;4.10;;;3.13;;
11618;SDS011;5865;48.776;9.280;2022-07-10T00:34:51;5.10;;;3.15;;
11618;SDS011;5865;48.776;9.280;2022-07-10T00:37:18;3.40;;;3.00;;
11618;SDS011;5865;48.776;9.280;2022-07-10T00:39:46;3.50;;;3.20;;
11618;SDS011;5865;48.776;9.280;2022-07-10T00:42:13;3.90;;;3.60;;
11618;SDS011;5865;48.776;9.280;2022-07-10T00:44:41;3.15;;;2.85;;
11618;SDS011;5865;48.776;9.280;2022-07-10T00:47:09;3.58;;;3.25;;
11618;SDS011;5865;48.776;9.280;2022-07-10T00:49:40;4.05;;;3.65;;
11618;SDS011;5865;48.776;9.280;2022-07-10T00:52:07;3.40;;;3.10;;
11618;SDS011;5865;48.776;9.280;2022-07-10T00:54:37;3.92;;;3.42;;
11618;SDS011;5865;48.776;9.280;2022-07-10T00:57:06;4.10;;;3.72;;
11618;SDS011;5865;48.776;9.280;2022-07-10T00:59:34;3.25;;;2.95;;
11618;SDS011;5865;48.776;9.280;2022-07-10T01:02:02;3.90;;;3.50;;
11618;SDS011;5865;48.776;9.280;2022-07-10T01:04:30;3.88;;;3.58;;
11618;SDS011;5865;48.776;9.280;2022-07-10T01:06:59;3.60;;;3.30;;
11618;SDS011;5865;48.776;9.280;2022-07-10T01:09:26;4.30;;;3.30;;
11618;SDS011;5865;48.776;9.280;2022-07-10T01:11:54;4.95;;;3.60;;
11618;SDS011;5865;48.776;9.280;2022-07-10T01:14:22;3.55;;;3.25;;
11618;SDS011;5865;48.776;9.280;2022-07-10T01:16:50;3.92;;;3.50;;
11618;SDS011;5865;48.776;9.280;2022-07-10T01:19:18;3.42;;;3.13;;
11618;SDS011;5865;48.776;9.280;2022-07-10T01:21:46;3.22;;;2.95;;
11618;SDS011;5865;48.776;9.280;2022-07-10T01:24:13;4.82;;;3.47;;
11618;SDS011;5865;48.776;9.280;2022-07-10T01:26:40;4.43;;;3.65;;
11618;SDS011;5865;48.776;9.280;2022-07-10T01:29:08;3.95;;;3.60;;
11618;SDS011;5865;48.776;9.280;2022-07-10T01:31:36;4.90;;;4.40;;
11618;SDS011;5865;48.776;9.280;2022-07-10T01:34:05;3.95;;;3.60;;
11618;SDS011;5865;48.776;9.280;2022-07-10T01:36:33;5.35;;;3.90;;
11618;SDS011;5865;48.776;9.280;2022-07-10T01:39:02;4.47;;;4.07;;
11618;SDS011;5865;48.776;9.280;2022-07-10T01:41:29;4.00;;;3.60;;
11618;SDS011;5865;48.776;9.280;2022-07-10T01:43:59;5.82;;;4.03;;
11618;SDS011;5865;48.776;9.280;2022-07-10T01:46:26;4.15;;;3.75;;
11618;SDS011;5865;48.776;9.280;2022-07-10T01:48:53;4.82;;;4.05;;
11618;SDS011;5865;48.776;9.280;2022-07-10T01:51:20;3.95;;;3.55;;
11618;SDS011;5865;48.776;9.280;2022-07-10T01:53:47;4.65;;;3.95;;
11618;SDS011;5865;48.776;9.280;2022-07-10T01:56:16;4.60;;;4.20;;
11618;SDS011;5865;48.776;9.280;2022-07-10T01:58:43;4.50;;;3.72;;
11618;SDS011;5865;48.776;9.280;2022-07-10T02:01:10;4.40;;;4.00;;
11618;SDS011;5865;48.776;9.280;2022-07-10T02:03:37;4.28;;;3.88;;
11618;SDS011;5865;48.776;9.280;2022-07-10T02:06:23;4.40;;;4.00;;
11618;SDS011;5865;48.776;9.280;2022-07-10T02:08:50;5.05;;;4.43;;
11618;SDS011;5865;48.776;9.280;2022-07-10T02:11:18;5.33;;;4.30;;
11618;SDS011;5865;48.776;9.280;2022-07-10T02:13:45;4.77;;;4.37;;
11618;SDS011;5865;48.776;9.280;2022-07-10T02:16:12;4.77;;;4.37;;
11618;SDS011;5865;48.776;9.280;2022-07-10T02:18:39;4.57;;;4.18;;
11618;SDS011;5865;48.776;9.280;2022-07-10T02:21:06;4.80;;;4.40;;
11618;SDS011;5865;48.776;9.280;2022-07-10T02:23:33;5.27;;;4.80;;
11618;SDS011;5865;48.776;9.280;2022-07-10T02:26:01;5.00;;;4.50;;
11618;SDS011;5865;48.776;9.280;2022-07-10T02:28:30;5.10;;;4.70;;
11618;SDS011;5865;48.776;9.280;2022-07-10T02:30:57;5.03;;;4.63;;
11618;SDS011;5865;48.776;9.280;2022-07-10T02:33:24;5.27;;;4.77;;
11618;SDS011;5865;48.776;9.280;2022-07-10T02:35:51;5.55;;;5.05;;
11618;SDS011;5865;48.776;9.280;2022-07-10T02:38:18;5.60;;;5.10;;
11618;SDS011;5865;48.776;9.280;2022-07-10T02:40:45;5.30;;;4.80;;
11618;SDS011;5865;48.776;9.280;2022-07-10T02:43:14;6.20;;;5.70;;
11618;SDS011;5865;48.776;9.280;2022-07-10T02:45:42;5.30;;;4.80;;
11618;SDS011;5865;48.776;9.280;2022-07-10T02:48:09;5.20;;;4.70;;
11618;SDS011;5865;48.776;9.280;2022-07-10T02:50:36;5.33;;;4.87;;
11618;SDS011;5865;48.776;9.280;2022-07-10T02:53:03;4.72;;;4.30;;
11618;SDS011;5865;48.776;9.280;2022-07-10T02:55:31;5.40;;;4.80;;
11618;SDS011;5865;48.776;9.280;2022-07-10T02:57:59;5.32;;;4.82;;
11618;SDS011;5865;48.776;9.280;2022-07-10T03:00:26;6.50;;;5.90;;
11618;SDS011;5865;48.776;9.280;2022-07-10T03:02:54;5.95;;;5.43;;
11618;SDS011;5865;48.776;9.280;2022-07-10T03:05:21;6.15;;;5.20;;
11618;SDS011;5865;48.776;9.280;2022-07-10T03:07:49;5.85;;;5.25;;
11618;SDS011;5865;48.776;9.280;2022-07-10T03:10:16;6.25;;;5.68;;
11618;SDS011;5865;48.776;9.280;2022-07-10T03:12:43;5.78;;;5.22;;
11618;SDS011;5865;48.776;9.280;2022-07-10T03:15:10;6.38;;;5.68;;
11618;SDS011;5865;48.776;9.280;2022-07-10T03:17:37;6.75;;;6.03;;
11618;SDS011;5865;48.776;9.280;2022-07-10T03:20:06;6.38;;;5.82;;
11618;SDS011;5865;48.776;9.280;2022-07-10T03:22:34;7.18;;;6.32;;
11618;SDS011;5865;48.776;9.280;2022-07-10T03:25:01;6.65;;;6.05;;
11618;SDS011;5865;48.776;9.280;2022-07-10T03:27:29;8.03;;;6.30;;
11618;SDS011;5865;48.776;9.280;2022-07-10T03:29:55;6.67;;;5.40;;
11618;SDS011;5865;48.776;9.280;2022-07-10T03:32:22;6.55;;;5.95;;
11618;SDS011;5865;48.776;9.280;2022-07-10T03:34:49;7.40;;;6.20;;
11618;SDS011;5865;48.776;9.280;2022-07-10T03:37:18;7.47;;;6.77;;
11618;SDS011;5865;48.776;9.280;2022-07-10T03:39:45;7.72;;;6.93;;
11618;SDS011;5865;48.776;9.280;2022-07-10T03:42:12;7.43;;;6.07;;
11618;SDS011;5865;48.776;9.280;2022-07-10T03:44:39;8.02;;;6.60;;
11618;SDS011;5865;48.776;9.280;2022-07-10T03:47:06;7.05;;;6.07;;
11618;SDS011;5865;48.776;9.280;2022-07-10T03:49:33;6.90;;;6.13;;
11618;SDS011;5865;48.776;9.280;2022-07-10T03:52:00;5.37;;;4.87;;
11618;SDS011;5865;48.776;9.280;2022-07-10T03:54:29;6.93;;;5.47;;
11618;SDS011;5865;48.776;9.280;2022-07-10T03:56:57;6.23;;;5.63;;
11618;SDS011;5865;48.776;9.280;2022-07-10T03:59:44;6.60;;;5.07;;
11618;SDS011;5865;48.776;9.280;2022-07-10T04:02:10;6.90;;;6.18;;
11618;SDS011;5865;48.776;9.280;2022-07-10T04:04:37;7.03;;;6.30;;
11618;SDS011;5865;48.776;9.280;2022-07-10T04:07:04;6.60;;;6.00;;
11618;SDS011;5865;48.776;9.280;2022-07-10T04:09:33;6.95;;;6.25;;
11618;SDS011;5865;48.776;9.280;2022-07-10T04:11:59;6.88;;;6.28;;
11618;SDS011;5865;48.776;9.280;2022-07-10T04:14:26;6.90;;;6.25;;
11618;SDS011;5865;48.776;9.280;2022-07-10T04:16:53;6.25;;;5.65;;
11618;SDS011;5865;48.776;9.280;2022-07-10T04:19:20;6.18;;;5.45;;
11618;SDS011;5865;48.776;9.280;2022-07-10T04:21:47;6.25;;;5.65;;
11618;SDS011;5865;48.776;9.280;2022-07-10T04:24:14;6.63;;;5.97;;
11618;SDS011;5865;48.776;9.280;2022-07-10T04:26:43;7.15;;;5.32;;
11618;SDS011;5865;48.776;9.280;2022-07-10T04:29:10;6.03;;;5.13;;
11618;SDS011;5865;48.776;9.280;2022-07-10T04:31:37;6.32;;;5.53;;
11618;SDS011;5865;48.776;9.280;2022-07-10T04:34:04;6.00;;;5.25;;
11618;SDS011;5865;48.776;9.280;2022-07-10T04:36:31;6.30;;;5.70;;
11618;SDS011;5865;48.776;9.280;2022-07-10T04:38:58;7.43;;;4.75;;
11618;SDS011;5865;48.776;9.280;2022-07-10T04:41:25;6.40;;;5.18;;
11618;SDS011;5865;48.776;9.280;2022-07-10T04:43:53;5.43;;;4.93;;
11618;SDS011;5865;48.776;9.280;2022-07-10T04:46:20;4.85;;;4.43;;
11618;SDS011;5865;48.776;9.280;2022-07-10T04:48:47;4.78;;;4.32;;
11618;SDS011;5865;48.776;9.280;2022-07-10T04:51:13;6.32;;;4.90;;
11618;SDS011;5865;48.776;9.280;2022-07-10T04:53:40;6.55;;;4.25;;
11618;SDS011;5865;48.776;9.280;2022-07-10T04:56:07;5.22;;;4.20;;
11618;SDS011;5865;48.776;9.280;2022-07-10T04:58:34;4.97;;;4.47;;
11618;SDS011;5865;48.776;9.280;2022-07-10T05:01:03;7.07;;;4.93;;
11618;SDS011;5865;48.776;9.280;2022-07-10T05:03:30;4.95;;;4.00;;
11618;SDS011;5865;48.776;9.280;2022-07-10T05:05:58;5.47;;;4.43;;
11618;SDS011;5865;48.776;9.280;2022-07-10T05:08:25;5.30;;;4.78;;
11618;SDS011;5865;48.776;9.280;2022-07-10T05:10:52;5.25;;;4.32;;
11618;SDS011;5865;48.776;9.280;2022-07-10T05:13:20;4.75;;;4.15;;
11618;SDS011;5865;48.776;9.280;2022-07-10T05:15:47;4.68;;;4.22;;
11618;SDS011;5865;48.776;9.280;2022-07-10T05:18:16;4.75;;;4.10;;
11618;SDS011;5865;48.776;9.280;2022-07-10T05:20:44;5.25;;;3.85;;
11618;SDS011;5865;48.776;9.280;2022-07-10T05:23:13;4.53;;;4.05;;
11618;SDS011;5865;48.776;9.280;2022-07-10T05:25:41;4.53;;;4.00;;
11618;SDS011;5865;48.776;9.280;2022-07-10T05:28:08;5.15;;;4.47;;
11618;SDS011;5865;48.776;9.280;2022-07-10T05:30:38;4.72;;;4.32;;
11618;SDS011;5865;48.776;9.280;2022-07-10T05:33:07;4.53;;;4.10;;
11618;SDS011;5865;48.776;9.280;2022-07-10T05:35:35;4.47;;;4.07;;
11618;SDS011;5865;48.776;9.280;2022-07-10T05:38:02;4.13;;;3.60;;
11618;SDS011;5865;48.776;9.280;2022-07-10T05:40:30;4.10;;;3.70;;
11618;SDS011;5865;48.776;9.280;2022-07-10T05:42:58;6.18;;;3.83;;
11618;SDS011;5865;48.776;9.280;2022-07-10T05:45:25;4.65;;;3.22;;
11618;SDS011;5865;48.776;9.280;2022-07-10T05:47:52;3.55;;;2.95;;
11618;SDS011;5865;48.776;9.280;2022-07-10T05:50:21;3.65;;;3.10;;
11618;SDS011;5865;48.776;9.280;2022-07-10T05:52:50;5.05;;;3.30;;
11618;SDS011;5865;48.776;9.280;2022-07-10T05:55:17;4.25;;;2.72;;
11618;SDS011;5865;48.776;9.280;2022-07-10T05:57:44;5.15;;;2.97;;
11618;SDS011;5865;48.776;9.280;2022-07-10T06:00:12;5.22;;;2.80;;
11618;SDS011;5865;48.776;9.280;2022-07-10T06:02:40;4.63;;;2.60;;
11618;SDS011;5865;48.776;9.280;2022-07-10T06:05:07;3.47;;;2.30;;
11618;SDS011;5865;48.776;9.280;2022-07-10T06:07:34;2.60;;;2.38;;
11618;SDS011;5865;48.776;9.280;2022-07-10T06:10:03;3.10;;;2.42;;
11618;SDS011;5865;48.776;9.280;2022-07-10T06:12:31;3.15;;;2.45;;
11618;SDS011;5865;48.776;9.280;2022-07-10T06:14:58;4.07;;;2.30;;
11618;SDS011;5865;48.776;9.280;2022-07-10T06:17:25;2.83;;;1.90;;
11618;SDS011;5865;48.776;9.280;2022-07-10T06:19:52;2.85;;;2.03;;
11618;SDS011;5865;48.776;9.280;2022-07-10T06:22:20;2.17;;;1.98;;
11618;SDS011;5865;48.776;9.280;2022-07-10T06:24:59;2.97;;;1.92;;
11618;SDS011;5865;48.776;9.280;2022-07-10T06:27:29;3.33;;;2.00;;
11618;SDS011;5865;48.776;9.280;2022-07-10T06:29:56;3.03;;;1.83;;
11618;SDS011;5865;48.776;9.280;2022-07-10T06:32:24;3.78;;;1.70;;
11618;SDS011;5865;48.776;9.280;2022-07-10T06:34:51;3.53;;;1.90;;
11618;SDS011;5865;48.776;9.280;2022-07-10T06:37:18;4.97;;;1.88;;
11618;SDS011;5865;48.776;9.280;2022-07-10T06:39:46;2.70;;;1.77;;
11618;SDS011;5865;48.776;9.280;2022-07-10T06:42:14;5.53;;;2.00;;
11618;SDS011;5865;48.776;9.280;2022-07-10T06:44:47;3.38;;;2.00;;
11618;SDS011;5865;48.776;9.280;2022-07-10T06:47:14;5.70;;;1.85;;
11618;SDS011;5865;48.776;9.280;2022-07-10T06:50:00;2.83;;;1.75;;
11618;SDS011;5865;48.776;9.280;2022-07-10T06:52:28;3.17;;;2.03;;
11618;SDS011;5865;48.776;9.280;2022-07-10T06:54:57;1.88;;;1.58;;
11618;SDS011;5865;48.776;9.280;2022-07-10T06:57:24;3.40;;;1.67;;
11618;SDS011;5865;48.776;9.280;2022-07-10T06:59:52;3.03;;;1.90;;
11618;SDS011;5865;48.776;9.280;2022-07-10T07:02:19;3.90;;;2.00;;
11618;SDS011;5865;48.776;9.280;2022-07-10T07:04:46;3.83;;;1.88;;
11618;SDS011;5865;48.776;9.280;2022-07-10T07:07:13;3.60;;;1.80;;
11618;SDS011;5865;48.776;9.280;2022-07-10T07:09:40;2.55;;;1.63;;
11618;SDS011;5865;48.776;9.280;2022-07-10T07:12:08;3.65;;;1.95;;
11618;SDS011;5865;48.776;9.280;2022-07-10T07:14:35;2.60;;;1.52;;
11618;SDS011;5865;48.776;9.280;2022-07-10T07:17:05;3.50;;;1.65;;
11618;SDS011;5865;48.776;9.280;2022-07-10T07:19:34;3.03;;;1.80;;
11618;SDS011;5865;48.776;9.280;2022-07-10T07:22:15;3.67;;;1.75;;
11618;SDS011;5865;48.776;9.280;2022-07-10T07:24:59;3.30;;;1.60;;
11618;SDS011;5865;48.776;9.280;2022-07-10T07:27:26;1.73;;;1.40;;
11618;SDS011;5865;48.776;9.280;2022-07-10T07:29:53;2.85;;;1.50;;
11618;SDS011;5865;48.776;9.280;2022-07-10T07:32:21;2.53;;;1.40;;
11618;SDS011;5865;48.776;9.280;2022-07-10T07:34:48;2.88;;;1.40;;
11618;SDS011;5865;48.776;9.280;2022-07-10T07:37:15;3.78;;;1.33;;
11618;SDS011;5865;48.776;9.280;2022-07-10T07:39:42;2.50;;;1.40;;
11618;SDS011;5865;48.776;9.280;2022-07-10T07:42:09;3.95;;;1.40;;
11618;SDS011;5865;48.776;9.280;2022-07-10T07:44:36;1.20;;;1.10;;
11618;SDS011;5865;48.776;9.280;2022-07-10T07:47:03;3.10;;;1.50;;
11618;SDS011;5865;48.776;9.280;2022-07-10T07:49:31;2.17;;;1.67;;
11618;SDS011;5865;48.776;9.280;2022-07-10T07:51:58;2.72;;;1.60;;
11618;SDS011;5865;48.776;9.280;2022-07-10T07:54:25;1.92;;;1.60;;
11618;SDS011;5865;48.776;9.280;2022-07-10T07:56:52;4.38;;;1.30;;
11618;SDS011;5865;48.776;9.280;2022-07-10T07:59:19;2.60;;;1.60;;
11618;SDS011;5865;48.776;9.280;2022-07-10T08:01:46;3.15;;;1.60;;
11618;SDS011;5865;48.776;9.280;2022-07-10T08:04:12;2.17;;;1.40;;
11618;SDS011;5865;48.776;9.280;2022-07-10T08:06:41;2.00;;;1.35;;
11618;SDS011;5865;48.776;9.280;2022-07-10T08:09:07;2.63;;;1.60;;
11618;SDS011;5865;48.776;9.280;2022-07-10T08:11:34;4.35;;;1.70;;
11618;SDS011;5865;48.776;9.280;2022-07-10T08:14:01;2.15;;;1.50;;
11618;SDS011;5865;48.776;9.280;2022-07-10T08:16:28;3.45;;;1.40;;
11618;SDS011;5865;48.776;9.280;2022-07-10T08:18:55;5.45;;;1.60;;
11618;SDS011;5865;48.776;9.280;2022-07-10T08:21:32;2.80;;;1.40;;
11618;SDS011;5865;48.776;9.280;2022-07-10T08:24:01;1.73;;;1.30;;
11618;SDS011;5865;48.776;9.280;2022-07-10T08:26:30;2.97;;;1.40;;
11618;SDS011;5865;48.776;9.280;2022-07-10T08:28:58;3.30;;;1.45;;
11618;SDS011;5865;48.776;9.280;2022-07-10T08:31:25;2.72;;;1.45;;
11618;SDS011;5865;48.776;9.280;2022-07-10T08:33:52;3.95;;;1.50;;
11618;SDS011;5865;48.776;9.280;2022-07-10T08:36:20;3.15;;;1.27;;
11618;SDS011;5865;48.776;9.280;2022-07-10T08:38:47;3.28;;;1.45;;
11618;SDS011;5865;48.776;9.280;2022-07-10T08:41:15;2.30;;;1.13;;
11618;SDS011;5865;48.776;9.280;2022-07-10T08:43:48;3.58;;;1.90;;
11618;SDS011;5865;48.776;9.280;2022-07-10T08:46:15;3.17;;;1.38;;
11618;SDS011;5865;48.776;9.280;2022-07-10T08:48:47;2.67;;;1.30;;
11618;SDS011;5865;48.776;9.280;2022-07-10T08:51:21;1.55;;;1.25;;
11618;SDS011;5865;48.776;9.280;2022-07-10T08:53:52;4.45;;;1.50;;
11618;SDS011;5865;48.776;9.280;2022-07-10T09:01:40;1.48;;;1.15;;
11618;SDS011;5865;48.776;9.280;2022-07-10T09:04:14;1.83;;;1.30;;
11618;SDS011;5865;48.776;9.280;2022-07-10T09:06:42;2.10;;;1.33;;
11618;SDS011;5865;48.776;9.280;2022-07-10T09:09:10;2.70;;;1.35;;
11618;SDS011;5865;48.776;9.280;2022-07-10T09:11:38;3.78;;;1.60;;
11618;SDS011;5865;48.776;9.280;2022-07-10T09:14:08;3.88;;;1.35;;
11618;SDS011;5865;48.776;9.280;2022-07-10T09:16:37;3.45;;;1.58;;
11618;SDS011;5865;48.776;9.280;2022-07-10T09:19:15;3.15;;;1.50;;
11618;SDS011;5865;48.776;9.280;2022-07-10T09:21:44;1.40;;;1.10;;
11618;SDS011;5865;48.776;9.280;2022-07-10T09:24:12;3.20;;;1.50;;
11618;SDS011;5865;48.776;9.280;2022-07-10T09:26:40;2.00;;;1.33;;
11618;SDS011;5865;48.776;9.280;2022-07-10T09:29:08;2.38;;;1.20;;
11618;SDS011;5865;48.776;9.280;2022-07-10T09:31:48;2.88;;;1.38;;
11618;SDS011;5865;48.776;9.280;2022-07-10T09:34:17;4.15;;;1.25;;
11618;SDS011;5865;48.776;9.280;2022-07-10T09:36:45;2.10;;;1.25;;
11618;SDS011;5865;48.776;9.280;2022-07-10T09:39:12;1.52;;;1.13;;
11618;SDS011;5865;48.776;9.280;2022-07-10T09:41:39;2.15;;;1.10;;
11618;SDS011;5865;48.776;9.280;2022-07-10T09:44:06;2.63;;;1.30;;
11618;SDS011;5865;48.776;9.280;2022-07-10T09:46:35;2.65;;;1.35;;
11618;SDS011;5865;48.776;9.280;2022-07-10T09:49:05;2.53;;;1.20;;
11618;SDS011;5865;48.776;9.280;2022-07-10T09:51:36;1.80;;;1.25;;
11618;SDS011;5865;48.776;9.280;2022-07-10T09:54:05;3.65;;;1.17;;
11618;SDS011;5865;48.776;9.280;2022-07-10T09:56:39;1.95;;;1.15;;
11618;SDS011;5865;48.776;9.280;2022-07-10T09:59:08;2.10;;;1.10;;
11618;SDS011;5865;48.776;9.280;2022-07-10T10:01:37;3.92;;;1.27;;
11618;SDS011;5865;48.776;9.280;2022-07-10T10:04:08;2.72;;;1.15;;
11618;SDS011;5865;48.776;9.280;2022-07-10T10:06:37;2.40;;;1.20;;
11618;SDS011;5865;48.776;9.280;2022-07-10T10:09:07;2.13;;;1.33;;
11618;SDS011;5865;48.776;9.280;2022-07-10T10:11:39;3.00;;;1.25;;
11618;SDS011;5865;48.776;9.280;2022-07-10T10:14:10;2.17;;;1.23;;
11618;SDS011;5865;48.776;9.280;2022-07-10T10:16:38;2.72;;;1.20;;
11618;SDS011;5865;48.776;9.280;2022-07-10T10:19:09;1.63;;;1.20;;
11618;SDS011;5865;48.776;9.280;2022-07-10T10:21:57;3.58;;;1.33;;
11618;SDS011;5865;48.776;9.280;2022-07-10T10:24:25;2.25;;;1.10;;
11618;SDS011;5865;48.776;9.280;2022-07-10T10:26:53;2.20;;;1.05;;
11618;SDS011;5865;48.776;9.280;2022-07-10T10:29:20;3.33;;;1.20;;
11618;SDS011;5865;48.776;9.280;2022-07-10T10:31:47;2.88;;;1.20;;
11618;SDS011;5865;48.776;9.280;2022-07-10T10:34:18;2.35;;;1.27;;
11618;SDS011;5865;48.776;9.280;2022-07-10T10:37:06;2.28;;;1.20;;
11618;SDS011;5865;48.776;9.280;2022-07-10T10:42:33;3.65;;;1.25;;
11618;SDS011;5865;48.776;9.280;2022-07-10T10:47:59;1.95;;;1.20;;
11618;SDS011;5865;48.776;9.280;2022-07-10T10:50:37;2.78;;;1.50;;
11618;SDS011;5865;48.776;9.280;2022-07-10T10:53:13;3.58;;;1.23;;
11618;SDS011;5865;48.776;9.280;2022-07-10T10:58:50;3.05;;;1.63;;
11618;SDS011;5865;48.776;9.280;2022-07-10T11:01:27;3.25;;;1.35;;
11618;SDS011;5865;48.776;9.280;2022-07-10T11:04:17;3.67;;;1.02;;
11618;SDS011;5865;48.776;9.280;2022-07-10T11:06:45;3.47;;;1.17;;
11618;SDS011;5865;48.776;9.280;2022-07-10T11:09:25;1.88;;;0.95;;
11618;SDS011;5865;48.776;9.280;2022-07-10T11:12:00;1.58;;;1.10;;
11618;SDS011;5865;48.776;9.280;2022-07-10T11:14:30;2.22;;;1.15;;
11618;SDS011;5865;48.776;9.280;2022-07-10T11:16:59;3.05;;;1.23;;
11618;SDS011;5865;48.776;9.280;2022-07-10T11:19:26;3.00;;;1.30;;
11618;SDS011;5865;48.776;9.280;2022-07-10T11:25:06;2.03;;;1.30;;
11618;SDS011;5865;48.776;9.280;2022-07-10T11:30:43;2.67;;;1.30;;
11618;SDS011;5865;48.776;9.280;2022-07-10T11:33:10;3.05;;;1.40;;
11618;SDS011;5865;48.776;9.280;2022-07-10T11:35:38;1.60;;;1.10;;
11618;SDS011;5865;48.776;9.280;2022-07-10T11:38:05;2.63;;;1.10;;
11618;SDS011;5865;48.776;9.280;2022-07-10T11:40:36;1.88;;;1.15;;
11618;SDS011;5865;48.776;9.280;2022-07-10T11:43:03;2.58;;;1.13;;
11618;SDS011;5865;48.776;9.280;2022-07-10T11:45:32;2.50;;;1.13;;
11618;SDS011;5865;48.776;9.280;2022-07-10T11:48:02;1.92;;;1.15;;
11618;SDS011;5865;48.776;9.280;2022-07-10T11:50:34;1.38;;;1.05;;
11618;SDS011;5865;48.776;9.280;2022-07-10T11:53:03;2.38;;;1.20;;
11618;SDS011;5865;48.776;9.280;2022-07-10T11:55:30;3.70;;;1.30;;
11618;SDS011;5865;48.776;9.280;2022-07-10T11:58:13;2.58;;;1.20;;
11618;SDS011;5865;48.776;9.280;2022-07-10T12:00:40;1.65;;;1.00;;
11618;SDS011;5865;48.776;9.280;2022-07-10T12:03:17;2.50;;;1.10;;
11618;SDS011;5865;48.776;9.280;2022-07-10T12:05:46;1.15;;;0.90;;
11618;SDS011;5865;48.776;9.280;2022-07-10T12:08:14;2.25;;;1.00;;
11618;SDS011;5865;48.776;9.280;2022-07-10T12:10:41;2.97;;;1.20;;
11618;SDS011;5865;48.776;9.280;2022-07-10T12:13:09;4.28;;;1.10;;
11618;SDS011;5865;48.776;9.280;2022-07-10T12:15:40;2.58;;;1.10;;
11618;SDS011;5865;48.776;9.280;2022-07-10T12:18:09;3.85;;;1.15;;
11618;SDS011;5865;48.776;9.280;2022-07-10T12:20:44;3.25;;;1.00;;
11618;SDS011;5865;48.776;9.280;2022-07-10T12:23:13;1.95;;;1.02;;
11618;SDS011;5865;48.776;9.280;2022-07-10T12:25:41;3.72;;;1.00;;
11618;SDS011;5865;48.776;9.280;2022-07-10T12:28:09;2.45;;;1.10;;
11618;SDS011;5865;48.776;9.280;2022-07-10T12:30:42;1.58;;;0.90;;
11618;SDS011;5865;48.776;9.280;2022-07-10T12:33:10;2.13;;;1.10;;
11618;SDS011;5865;48.776;9.280;2022-07-10T12:35:48;2.80;;;0.90;;
11618;SDS011;5865;48.776;9.280;2022-07-10T12:38:17;5.40;;;1.35;;
11618;SDS011;5865;48.776;9.280;2022-07-10T12:40:44;2.03;;;0.85;;
11618;SDS011;5865;48.776;9.280;2022-07-10T12:43:12;3.28;;;1.10;;
11618;SDS011;5865;48.776;9.280;2022-07-10T12:48:36;1.88;;;1.10;;
11618;SDS011;5865;48.776;9.280;2022-07-10T12:51:21;1.23;;;0.90;;
11618;SDS011;5865;48.776;9.280;2022-07-10T12:53:49;1.65;;;1.10;;
11618;SDS011;5865;48.776;9.280;2022-07-10T12:56:27;1.95;;;0.98;;
11618;SDS011;5865;48.776;9.280;2022-07-10T12:58:54;2.75;;;1.13;;
11618;SDS011;5865;48.776;9.280;2022-07-10T13:01:23;2.78;;;1.10;;
11618;SDS011;5865;48.776;9.280;2022-07-10T13:03:57;3.58;;;0.90;;
11618;SDS011;5865;48.776;9.280;2022-07-10T13:06:28;1.92;;;1.00;;
11618;SDS011;5865;48.776;9.280;2022-07-10T13:08:56;2.42;;;1.00;;
11618;SDS011;5865;48.776;9.280;2022-07-10T13:11:23;2.75;;;1.08;;
11618;SDS011;5865;48.776;9.280;2022-07-10T13:13:51;1.98;;;1.05;;
11618;SDS011;5865;48.776;9.280;2022-07-10T13:16:19;3.75;;;1.10;;
11618;SDS011;5865;48.776;9.280;2022-07-10T13:18:47;1.45;;;1.00;;
11618;SDS011;5865;48.776;9.280;2022-07-10T13:21:15;1.70;;;0.85;;
11618;SDS011;5865;48.776;9.280;2022-07-10T13:23:42;3.28;;;0.90;;
11618;SDS011;5865;48.776;9.280;2022-07-10T13:26:10;2.97;;;0.90;;
11618;SDS011;5865;48.776;9.280;2022-07-10T13:28:38;2.20;;;0.90;;
11618;SDS011;5865;48.776;9.280;2022-07-10T13:31:05;2.20;;;1.00;;
11618;SDS011;5865;48.776;9.280;2022-07-10T13:33:33;3.53;;;0.90;;
11618;SDS011;5865;48.776;9.280;2022-07-10T13:36:02;1.45;;;0.80;;
11618;SDS011;5865;48.776;9.280;2022-07-10T13:38:30;2.53;;;1.20;;
11618;SDS011;5865;48.776;9.280;2022-07-10T13:40:58;1.33;;;0.60;;
11618;SDS011;5865;48.776;9.280;2022-07-10T13:43:25;1.70;;;0.82;;
11618;SDS011;5865;48.776;9.280;2022-07-10T13:45:56;2.13;;;0.80;;
11618;SDS011;5865;48.776;9.280;2022-07-10T13:48:24;2.28;;;1.00;;
11618;SDS011;5865;48.776;9.280;2022-07-10T13:50:52;2.55;;;0.90;;
11618;SDS011;5865;48.776;9.280;2022-07-10T13:53:21;1.58;;;0.95;;
11618;SDS011;5865;48.776;9.280;2022-07-10T13:55:48;2.58;;;1.00;;
11618;SDS011;5865;48.776;9.280;2022-07-10T13:58:16;2.30;;;1.00;;
11618;SDS011;5865;48.776;9.280;2022-07-10T14:00:45;2.40;;;1.00;;
11618;SDS011;5865;48.776;9.280;2022-07-10T14:03:12;2.88;;;1.00;;
11618;SDS011;5865;48.776;9.280;2022-07-10T14:05:39;1.50;;;1.00;;
11618;SDS011;5865;48.776;9.280;2022-07-10T14:08:07;2.35;;;1.00;;
11618;SDS011;5865;48.776;9.280;2022-07-10T14:10:35;0.93;;;0.70;;
11618;SDS011;5865;48.776;9.280;2022-07-10T14:13:03;2.53;;;1.00;;
11618;SDS011;5865;48.776;9.280;2022-07-10T14:15:32;1.85;;;0.73;;
11618;SDS011;5865;48.776;9.280;2022-07-10T14:17:59;2.78;;;0.85;;
11618;SDS011;5865;48.776;9.280;2022-07-10T14:20:27;1.50;;;0.80;;
11618;SDS011;5865;48.776;9.280;2022-07-10T14:23:15;1.23;;;0.90;;
11618;SDS011;5865;48.776;9.280;2022-07-10T14:25:44;1.55;;;0.80;;
11618;SDS011;5865;48.776;9.280;2022-07-10T14:28:11;1.63;;;0.73;;
11618;SDS011;5865;48.776;9.280;2022-07-10T14:30:39;1.75;;;1.00;;
11618;SDS011;5865;48.776;9.280;2022-07-10T14:33:06;2.15;;;0.93;;
11618;SDS011;5865;48.776;9.280;2022-07-10T14:35:34;1.55;;;0.80;;
11618;SDS011;5865;48.776;9.280;2022-07-10T14:38:01;1.27;;;0.80;;
11618;SDS011;5865;48.776;9.280;2022-07-10T14:40:28;1.70;;;1.00;;
11618;SDS011;5865;48.776;9.280;2022-07-10T14:42:57;1.08;;;0.60;;
11618;SDS011;5865;48.776;9.280;2022-07-10T14:45:25;1.92;;;0.80;;
11618;SDS011;5865;48.776;9.280;2022-07-10T14:47:52;1.55;;;0.77;;
11618;SDS011;5865;48.776;9.280;2022-07-10T14:50:21;2.05;;;0.95;;
11618;SDS011;5865;48.776;9.280;2022-07-10T14:52:48;2.25;;;0.73;;
11618;SDS011;5865;48.776;9.280;2022-07-10T14:55:19;1.38;;;0.80;;
11618;SDS011;5865;48.776;9.280;2022-07-10T14:57:47;2.78;;;0.93;;
11618;SDS011;5865;48.776;9.280;2022-07-10T15:00:16;1.17;;;0.75;;
11618;SDS011;5865;48.776;9.280;2022-07-10T15:02:44;1.67;;;0.80;;
11618;SDS011;5865;48.776;9.280;2022-07-10T15:05:11;2.03;;;0.80;;
11618;SDS011;5865;48.776;9.280;2022-07-10T15:07:39;2.25;;;0.80;;
11618;SDS011;5865;48.776;9.280;2022-07-10T15:10:06;1.17;;;1.05;;
11618;SDS011;5865;48.776;9.280;2022-07-10T15:12:34;3.78;;;1.00;;
11618;SDS011;5865;48.776;9.280;2022-07-10T15:15:09;2.50;;;1.05;;
11618;SDS011;5865;48.776;9.280;2022-07-10T15:17:38;1.40;;;0.90;;
11618;SDS011;5865;48.776;9.280;2022-07-10T15:20:05;1.80;;;0.95;;
11618;SDS011;5865;48.776;9.280;2022-07-10T15:22:33;2.65;;;0.80;;
11618;SDS011;5865;48.776;9.280;2022-07-10T15:25:00;2.17;;;0.80;;
11618;SDS011;5865;48.776;9.280;2022-07-10T15:27:27;1.00;;;0.70;;
11618;SDS011;5865;48.776;9.280;2022-07-10T15:29:54;1.65;;;0.90;;
11618;SDS011;5865;48.776;9.280;2022-07-10T15:32:21;1.77;;;0.82;;